-3.99C
ясно
ясно
Дата и времяТемператураДавление, мм рт.ст.Влажность, %Осадки
МинимумМаксимум
14.04.2024 08:00-6.87C-4.95C74972ясно
14.04.2024 11:00-4.4C-4.26C75077переменная облачность
14.04.2024 14:00-3.27C-3.27C75382пасмурно
14.04.2024 17:00-4.16C-4.16C75487пасмурно
14.04.2024 20:00-6.62C-6.62C75690пасмурно
14.04.2024 23:00-9.27C-9.27C75793облачно с прояснениями
15.04.2024 02:00-11.42C-11.42C75994облачно с прояснениями
15.04.2024 05:00-13.43C-13.43C76093переменная облачность
15.04.2024 08:00-11.55C-11.55C76282небольшая облачность
15.04.2024 11:00-7.97C-7.97C76370небольшая облачность
15.04.2024 14:00-5.93C-5.93C76462ясно
15.04.2024 17:00-6.26C-6.26C76579ясно
15.04.2024 20:00-10.16C-10.16C76691небольшая облачность
15.04.2024 23:00-10.86C-10.86C76791небольшая облачность
16.04.2024 02:00-9.92C-9.92C76689ясно
16.04.2024 05:00-8.84C-8.84C76788ясно
16.04.2024 08:00-3.62C-3.62C76684облачно с прояснениями
16.04.2024 11:000.43C0.43C76683облачно с прояснениями
16.04.2024 14:001.69C1.69C76586небольшая облачность
16.04.2024 17:001.7C1.7C76481небольшая облачность
16.04.2024 20:00-1.23C-1.23C76488небольшая облачность
16.04.2024 23:00-1.4C-1.4C76286небольшая облачность
17.04.2024 02:00-1.26C-1.26C76088облачно с прояснениями
17.04.2024 05:00-0.71C-0.71C75987облачно с прояснениями
17.04.2024 08:001.58C1.58C75684небольшой дождь
17.04.2024 11:001.43C1.43C75598небольшой дождь
17.04.2024 14:002.26C2.26C75597небольшой дождь
17.04.2024 17:003.03C3.03C75499пасмурно
17.04.2024 20:002.58C2.58C75399небольшой дождь
17.04.2024 23:001.62C1.62C75399небольшой дождь
18.04.2024 02:00-0.53C-0.53C75298облачно с прояснениями
18.04.2024 05:000.5C0.5C75096пасмурно
18.04.2024 08:002.19C2.19C74599небольшой дождь
18.04.2024 11:002.42C2.42C74399дождь
18.04.2024 14:005.76C5.76C74496небольшой дождь
18.04.2024 17:002.32C2.32C74697небольшой дождь
18.04.2024 20:001.26C1.26C75198пасмурно
18.04.2024 23:000.88C0.88C75597небольшой снег
19.04.2024 02:00-1.47C-1.47C75788пасмурно
19.04.2024 05:00-4.91C-4.91C76083пасмурно
Дата и время наблюдения: 14.04.2024 06:14:41